createdAt,value
2023-02-08T00:00:22.935Z,104064.94
2023-02-08T00:02:50.140Z,104059.03
2023-02-08T00:05:18.087Z,104054.53
2023-02-08T00:07:44.963Z,104076.69
2023-02-08T00:10:11.642Z,104055.25
2023-02-08T00:12:38.507Z,104060.66
2023-02-08T00:15:05.531Z,104063.69
2023-02-08T00:17:32.478Z,104060.25
2023-02-08T00:20:00.317Z,104058.31
2023-02-08T00:22:26.877Z,104045.84
2023-02-08T00:24:53.478Z,104040.28
2023-02-08T00:27:20.017Z,104041.50
2023-02-08T00:29:46.619Z,104020.66
2023-02-08T00:32:13.350Z,104032.00
2023-02-08T00:34:39.941Z,104010.41
2023-02-08T00:37:06.783Z,104010.59
2023-02-08T00:39:33.408Z,104033.78
2023-02-08T00:42:00.001Z,104040.09
2023-02-08T00:44:26.673Z,104028.41
2023-02-08T00:46:54.170Z,104036.50
2023-02-08T00:49:20.786Z,104029.31
2023-02-08T00:51:47.479Z,104020.00
2023-02-08T00:54:19.032Z,104038.31
2023-02-08T00:56:45.938Z,104034.72
2023-02-08T00:59:12.561Z,104025.00
2023-02-08T01:01:40.212Z,104033.78
2023-02-08T01:04:07.114Z,104024.81
2023-02-08T01:06:33.779Z,104025.38
2023-02-08T01:09:00.338Z,104038.69
2023-02-08T01:11:27.452Z,104023.41
2023-02-08T01:14:00.164Z,104042.31
2023-02-08T01:16:29.645Z,104036.59
2023-02-08T01:18:58.174Z,104057.66
2023-02-08T01:21:27.662Z,104051.19
2023-02-08T01:23:54.683Z,104044.00
2023-02-08T01:26:23.550Z,104053.16
2023-02-08T01:28:51.113Z,104045.59
2023-02-08T01:31:20.042Z,104040.91
2023-02-08T01:33:47.231Z,104043.63
2023-02-08T01:36:14.270Z,104027.59
2023-02-08T01:38:40.982Z,104026.69
2023-02-08T01:41:13.438Z,104029.72
2023-02-08T01:44:07.065Z,104032.25
2023-02-08T01:46:42.804Z,104018.22
2023-02-08T01:49:27.899Z,104031.69
2023-02-08T01:52:09.658Z,104011.03
2023-02-08T01:54:47.756Z,104017.34
2023-02-08T01:57:15.031Z,104015.34
2023-02-08T01:59:41.524Z,104026.69
2023-02-08T02:02:11.386Z,104010.19
2023-02-08T02:04:38.466Z,104014.69
2023-02-08T02:07:05.972Z,104025.44
2023-02-08T02:09:54.168Z,104027.81
2023-02-08T02:12:21.627Z,104016.81
2023-02-08T02:14:48.828Z,104002.09
2023-02-08T02:17:17.953Z,104010.72
2023-02-08T02:19:47.273Z,104025.84
2023-02-08T02:22:49.089Z,104029.09
2023-02-08T02:25:24.793Z,104029.66
2023-02-08T02:27:54.450Z,104022.97
2023-02-08T02:30:39.984Z,104022.97
2023-02-08T02:33:06.779Z,104021.00
2023-02-08T02:35:51.946Z,104016.50
2023-02-08T02:38:25.890Z,104014.53
2023-02-08T02:41:10.447Z,104012.00
2023-02-08T02:43:52.164Z,104004.06
2023-02-08T02:46:27.677Z,104010.94
2023-02-08T02:49:13.030Z,104011.84
2023-02-08T02:51:53.089Z,104012.22
2023-02-08T02:54:31.355Z,104012.59
2023-02-08T02:57:03.260Z,104002.16
2023-02-08T02:59:33.854Z,104007.38
2023-02-08T03:02:01.796Z,104022.88
2023-02-08T03:04:34.477Z,104017.63
2023-02-08T03:07:13.153Z,104010.06
2023-02-08T03:09:54.927Z,104015.84
2023-02-08T03:12:24.245Z,104013.31
2023-02-08T03:15:07.167Z,104006.31
2023-02-08T03:17:52.425Z,104013.69
2023-02-08T03:20:26.576Z,104011.00
2023-02-08T03:23:13.992Z,104008.31
2023-02-08T03:25:58.852Z,103992.66
2023-02-08T03:28:32.650Z,103993.34
2023-02-08T03:31:16.983Z,103994.28
2023-02-08T03:33:58.845Z,103994.44
2023-02-08T03:36:33.191Z,103986.53
2023-02-08T03:39:04.428Z,103985.63
2023-02-08T03:41:38.987Z,103990.31
2023-02-08T03:44:31.327Z,103991.75
2023-02-08T03:47:03.346Z,103991.06
2023-02-08T03:49:35.083Z,103995.41
2023-02-08T03:52:06.751Z,103982.06
2023-02-08T03:54:39.799Z,103986.38
2023-02-08T03:57:18.544Z,104001.16
2023-02-08T03:59:52.179Z,103989.25
2023-02-08T04:02:23.749Z,103984.03
2023-02-08T04:04:52.194Z,103983.69
2023-02-08T04:07:19.834Z,103981.00
2023-02-08T04:09:46.960Z,103980.44
2023-02-08T04:12:13.726Z,103990.53
2023-02-08T04:14:40.452Z,103981.75
2023-02-08T04:17:07.199Z,103993.25
2023-02-08T04:19:33.844Z,103990.38
2023-02-08T04:22:00.468Z,103979.25
2023-02-08T04:24:27.126Z,103993.47
2023-02-08T04:26:53.724Z,103986.78
2023-02-08T04:29:20.369Z,103986.78
2023-02-08T04:31:46.965Z,103969.16
2023-02-08T04:34:13.679Z,103975.44
2023-02-08T04:36:40.309Z,103983.19
2023-02-08T04:39:07.090Z,103973.84
2023-02-08T04:41:33.709Z,103980.31
2023-02-08T04:44:00.267Z,103973.84
2023-02-08T04:46:26.920Z,103973.84
2023-02-08T04:48:53.560Z,103969.34
2023-02-08T04:51:20.114Z,103975.66
2023-02-08T04:53:46.687Z,103978.31
2023-02-08T04:56:13.315Z,103978.31
2023-02-08T04:58:40.511Z,103979.25
2023-02-08T05:01:08.437Z,103976.72
2023-02-08T05:03:35.785Z,103962.53
2023-02-08T05:06:02.516Z,103965.75
2023-02-08T05:08:29.365Z,103965.41
2023-02-08T05:10:56.007Z,103960.56
2023-02-08T05:13:22.636Z,103952.44
2023-02-08T05:18:17.274Z,103946.72
2023-02-08T05:20:43.844Z,103946.84
2023-02-08T05:23:11.847Z,103949.00
2023-02-08T05:25:39.653Z,103948.88
2023-02-08T05:28:06.387Z,103952.28
2023-02-08T05:30:33.133Z,103951.53
2023-02-08T05:32:59.685Z,103945.78
2023-02-08T05:35:26.222Z,103946.84
2023-02-08T05:37:52.834Z,103938.22
2023-02-08T05:40:19.515Z,103946.84
2023-02-08T05:42:47.725Z,103952.28
2023-02-08T05:45:14.670Z,103948.69
2023-02-08T05:47:42.084Z,103942.22
2023-02-08T05:50:09.751Z,103949.59
2023-02-08T05:52:36.611Z,103943.47
2023-02-08T05:55:03.214Z,103955.16
2023-02-08T05:57:31.655Z,103952.84
2023-02-08T05:59:58.868Z,103949.22
2023-02-08T06:02:25.776Z,103944.00
2023-02-08T06:04:52.356Z,103942.03
2023-02-08T06:07:18.892Z,103952.69
2023-02-08T06:09:47.575Z,103952.50
2023-02-08T06:12:14.960Z,103949.44
2023-02-08T06:14:41.510Z,103950.50
2023-02-08T06:17:08.138Z,103956.25
2023-02-08T06:19:34.753Z,103959.88
2023-02-08T06:22:01.367Z,103958.63
2023-02-08T06:24:27.889Z,103961.31
2023-02-08T06:26:54.420Z,103961.16
2023-02-08T06:29:21.019Z,103966.75
2023-02-08T06:31:47.820Z,103964.22
2023-02-08T06:34:14.426Z,103950.53
2023-02-08T06:36:41.059Z,103967.63
2023-02-08T06:39:07.678Z,103960.78
2023-02-08T06:41:34.233Z,103951.97
2023-02-08T06:44:01.555Z,103945.28
2023-02-08T06:46:28.380Z,103927.66
2023-02-08T06:48:57.006Z,103928.19
2023-02-08T06:51:23.900Z,103934.50
2023-02-08T06:53:50.624Z,103924.53
2023-02-08T06:56:17.436Z,103931.47
2023-02-08T06:58:44.001Z,103937.81
2023-02-08T07:01:14.549Z,103939.06
2023-02-08T07:03:41.720Z,103941.03
2023-02-08T07:06:16.346Z,103939.06
2023-02-08T07:08:43.117Z,103934.59
2023-02-08T07:11:12.125Z,103941.97
2023-02-08T07:13:39.773Z,103951.13
2023-02-08T07:16:07.685Z,103948.47
2023-02-08T07:18:34.989Z,103952.06
2023-02-08T07:21:01.595Z,103956.91
2023-02-08T07:23:28.375Z,103947.16
2023-02-08T07:26:03.050Z,103945.00
2023-02-08T07:28:30.353Z,103956.69
2023-02-08T07:30:57.174Z,103947.53
2023-02-08T07:33:24.541Z,103934.22
2023-02-08T07:35:51.533Z,103933.44
2023-02-08T07:38:20.648Z,103933.81
2023-02-08T07:40:47.365Z,103931.97
2023-02-08T07:43:13.978Z,103926.56
2023-02-08T07:45:40.729Z,103930.72
2023-02-08T07:48:07.340Z,103933.22
2023-02-08T07:50:34.196Z,103941.47
2023-02-08T07:53:00.813Z,103938.41
2023-02-08T07:55:27.689Z,103934.78
2023-02-08T07:57:57.160Z,103937.84
2023-02-08T08:00:23.817Z,103932.63
2023-02-08T08:02:51.250Z,103932.22
2023-02-08T08:05:17.916Z,103917.50
2023-02-08T08:07:44.544Z,103929.13
2023-02-08T08:10:11.085Z,103933.22
2023-02-08T08:12:37.741Z,103937.09
2023-02-08T08:15:04.760Z,103930.47
2023-02-08T08:17:31.253Z,103920.34
2023-02-08T08:19:57.828Z,103923.16
2023-02-08T08:22:24.345Z,103919.66
2023-02-08T08:24:50.851Z,103919.59
2023-02-08T08:27:17.392Z,103915.41
2023-02-08T08:29:43.921Z,103914.09
2023-02-08T08:32:11.893Z,103920.50
2023-02-08T08:34:38.594Z,103903.06
2023-02-08T08:37:05.268Z,103910.13
2023-02-08T08:39:32.157Z,103890.53
2023-02-08T08:42:04.107Z,103899.34
2023-02-08T08:44:31.483Z,103903.34
2023-02-08T08:46:59.322Z,103901.72
2023-02-08T08:49:27.114Z,103899.44
2023-02-08T08:51:53.752Z,103904.50
2023-02-08T08:54:21.063Z,103905.06
2023-02-08T08:56:47.693Z,103891.84
2023-02-08T08:59:14.449Z,103898.91
2023-02-08T09:01:42.801Z,103902.75
2023-02-08T09:04:10.925Z,103903.69
2023-02-08T09:06:38.091Z,103905.97
2023-02-08T09:09:05.313Z,103908.78
2023-02-08T09:11:33.283Z,103902.53
2023-02-08T09:14:04.432Z,103904.78
2023-02-08T09:16:31.951Z,103902.97
2023-02-08T09:19:03.651Z,103909.84
2023-02-08T09:21:30.586Z,103906.13
2023-02-08T09:23:57.436Z,103894.69
2023-02-08T09:26:26.543Z,103903.22
2023-02-08T09:28:53.217Z,103911.56
2023-02-08T09:31:23.877Z,103906.94
2023-02-08T09:33:51.677Z,103908.47
2023-02-08T09:36:19.485Z,103905.34
2023-02-08T09:38:46.542Z,103902.94
2023-02-08T09:41:39.959Z,103905.66
2023-02-08T09:44:35.502Z,103903.94
2023-02-08T09:47:12.966Z,103897.09
2023-02-08T09:49:51.169Z,103887.06
2023-02-08T09:52:23.187Z,103898.13
2023-02-08T09:54:55.927Z,103900.41
2023-02-08T09:57:26.519Z,103905.91
2023-02-08T09:59:57.422Z,103895.91
2023-02-08T10:02:28.679Z,103902.19
2023-02-08T10:05:05.718Z,103907.56
2023-02-08T10:07:34.363Z,103910.97
2023-02-08T10:10:04.193Z,103907.88
2023-02-08T10:12:41.264Z,103915.91
2023-02-08T10:15:23.803Z,103911.13
2023-02-08T10:18:00.702Z,103918.41
2023-02-08T10:20:33.178Z,103915.75
2023-02-08T10:22:59.701Z,103916.81
2023-02-08T10:25:46.572Z,103918.91
2023-02-08T10:28:18.835Z,103925.31
2023-02-08T10:31:03.037Z,103921.56
2023-02-08T10:33:51.762Z,103921.22
2023-02-08T10:36:25.724Z,103919.66
2023-02-08T10:38:54.166Z,103917.09
2023-02-08T10:41:25.122Z,103911.13
2023-02-08T10:44:04.721Z,103905.16
2023-02-08T10:46:56.158Z,103909.34
2023-02-08T10:49:40.894Z,103903.06
2023-02-08T10:52:07.633Z,103905.34
2023-02-08T10:54:35.156Z,103892.94
2023-02-08T10:57:13.040Z,103861.84
2023-02-08T10:59:47.490Z,103886.59
2023-02-08T11:02:34.942Z,103895.22
2023-02-08T11:05:12.534Z,103884.66
2023-02-08T11:07:39.890Z,103879.53
2023-02-08T11:10:23.257Z,103875.00
2023-02-08T11:13:00.425Z,103876.22
2023-02-08T11:15:54.560Z,103871.53
2023-02-08T11:18:27.554Z,103872.09
2023-02-08T11:20:57.454Z,103871.25
2023-02-08T11:23:31.153Z,103866.94
2023-02-08T11:26:17.065Z,103863.03
2023-02-08T11:28:44.735Z,103862.00
2023-02-08T11:31:20.182Z,103846.81
2023-02-08T11:33:59.529Z,103853.97
2023-02-08T11:36:26.891Z,103846.38
2023-02-08T11:38:54.521Z,103839.53
2023-02-08T11:41:21.590Z,103836.25
2023-02-08T11:43:57.724Z,103834.00
2023-02-08T11:46:27.517Z,103840.53
2023-02-08T11:48:55.748Z,103834.84
2023-02-08T11:51:29.144Z,103828.22
2023-02-08T11:53:57.107Z,103822.63
2023-02-08T11:56:27.464Z,103818.91
2023-02-08T11:59:00.134Z,103815.59
2023-02-08T12:01:30.355Z,103810.69
2023-02-08T12:03:59.815Z,103796.41
2023-02-08T12:06:54.327Z,103807.88
2023-02-08T12:09:32.841Z,103802.50
2023-02-08T12:12:08.128Z,103793.06
2023-02-08T12:14:37.387Z,103795.84
2023-02-08T12:17:36.883Z,103787.69
2023-02-08T12:20:27.980Z,103785.69
2023-02-08T12:23:14.265Z,103779.28
2023-02-08T12:26:02.535Z,103772.38
2023-02-08T12:29:07.354Z,103775.97
2023-02-08T12:32:21.318Z,103759.06
2023-02-08T12:35:43.542Z,103759.84
2023-02-08T12:39:07.833Z,103751.81
2023-02-08T12:41:49.569Z,103753.28
2023-02-08T12:44:52.047Z,103745.34
2023-02-08T12:48:01.919Z,103743.44
2023-02-08T12:50:53.405Z,103745.78
2023-02-08T12:53:30.910Z,103738.19
2023-02-08T12:56:13.187Z,103731.91
2023-02-08T12:58:46.259Z,103734.97
2023-02-08T13:01:32.227Z,103731.09
2023-02-08T13:04:08.213Z,103723.91
2023-02-08T13:06:51.791Z,103719.75
2023-02-08T13:09:30.671Z,103707.94
2023-02-08T13:12:12.046Z,103704.38
2023-02-08T13:14:53.688Z,103702.66
2023-02-08T13:17:30.432Z,103702.78
2023-02-08T13:20:16.668Z,103691.41
2023-02-08T13:22:43.167Z,103703.66
2023-02-08T13:25:27.792Z,103695.91
2023-02-08T13:27:54.980Z,103685.66
2023-02-08T13:30:22.925Z,103689.41
2023-02-08T13:32:51.805Z,103688.97
2023-02-08T13:35:24.000Z,103680.47
2023-02-08T13:37:58.868Z,103680.34
2023-02-08T13:40:28.833Z,103683.91
2023-02-08T13:43:03.288Z,103676.94
2023-02-08T13:45:34.317Z,103677.38
2023-02-08T13:48:03.589Z,103674.94
2023-02-08T13:50:41.400Z,103667.53
2023-02-08T13:53:08.938Z,103668.19
2023-02-08T13:55:45.816Z,103672.03
2023-02-08T13:58:15.318Z,103661.88
2023-02-08T14:00:54.151Z,103656.66
2023-02-08T14:03:24.085Z,103652.84
2023-02-08T14:05:57.988Z,103648.81
2023-02-08T14:08:30.566Z,103636.03
2023-02-08T14:11:28.003Z,103634.09
2023-02-08T14:14:02.249Z,103642.19
2023-02-08T14:16:31.662Z,103641.19
2023-02-08T14:19:04.642Z,103632.56
2023-02-08T14:21:38.602Z,103626.72
2023-02-08T14:24:27.423Z,103629.22
2023-02-08T14:27:27.047Z,103628.22
2023-02-08T14:30:05.120Z,103608.88
2023-02-08T14:32:41.158Z,103604.44
2023-02-08T14:35:13.934Z,103606.31
2023-02-08T14:37:43.407Z,103607.19
2023-02-08T14:40:24.839Z,103604.31
2023-02-08T14:42:59.079Z,103604.31
2023-02-08T14:45:32.213Z,103600.53
2023-02-08T14:48:48.379Z,103593.63
2023-02-08T14:51:16.953Z,103592.88
2023-02-08T14:53:52.752Z,103575.66
2023-02-08T14:56:31.007Z,103581.28
2023-02-08T14:59:03.076Z,103578.06
2023-02-08T15:02:01.941Z,103574.91
2023-02-08T15:04:30.022Z,103561.09
2023-02-08T15:07:02.659Z,103563.31
2023-02-08T15:09:31.400Z,103557.06
2023-02-08T15:12:04.284Z,103545.72
2023-02-08T15:14:35.280Z,103554.78
2023-02-08T15:17:02.557Z,103562.16
2023-02-08T15:19:37.765Z,103557.03
2023-02-08T15:22:32.048Z,103544.78
2023-02-08T15:25:02.415Z,103542.75
2023-02-08T15:27:34.803Z,103542.56
2023-02-08T15:30:01.637Z,103534.53
2023-02-08T15:32:30.258Z,103535.06
2023-02-08T15:35:01.934Z,103534.00
2023-02-08T15:37:35.209Z,103531.28
2023-02-08T15:40:03.264Z,103533.00
2023-02-08T15:42:33.357Z,103537.88
2023-02-08T15:45:02.618Z,103518.69
2023-02-08T15:47:33.407Z,103508.84
2023-02-08T15:50:00.731Z,103528.03
2023-02-08T15:52:35.067Z,103519.81
2023-02-08T15:55:02.014Z,103517.81
2023-02-08T15:57:55.868Z,103520.88
2023-02-08T16:00:31.563Z,103506.50
2023-02-08T16:03:02.822Z,103512.50
2023-02-08T16:05:31.853Z,103518.41
2023-02-08T16:08:00.648Z,103508.22
2023-02-08T16:10:39.381Z,103503.03
2023-02-08T16:13:26.612Z,103502.31
2023-02-08T16:16:14.172Z,103506.91
2023-02-08T16:18:41.900Z,103504.78
2023-02-08T16:21:27.345Z,103509.22
2023-02-08T16:23:56.505Z,103506.94
2023-02-08T16:26:44.758Z,103480.72
2023-02-08T16:29:39.150Z,103491.41
2023-02-08T16:32:18.918Z,103496.03
2023-02-08T16:34:45.914Z,103467.00
2023-02-08T16:37:32.219Z,103487.25
2023-02-08T16:40:00.765Z,103480.34
2023-02-08T16:42:42.649Z,103478.44
2023-02-08T16:45:09.510Z,103481.22
2023-02-08T16:47:37.604Z,103469.66
2023-02-08T16:50:05.732Z,103465.97
2023-02-08T16:52:33.529Z,103475.22
2023-02-08T16:55:00.956Z,103473.72
2023-02-08T16:57:39.664Z,103475.34
2023-02-08T17:00:14.768Z,103463.41
2023-02-08T17:02:41.275Z,103464.88
2023-02-08T17:05:07.956Z,103456.75
2023-02-08T17:07:34.609Z,103450.47
2023-02-08T17:10:01.265Z,103449.81
2023-02-08T17:12:27.977Z,103454.16
2023-02-08T17:14:55.880Z,103450.47
2023-02-08T17:17:22.684Z,103435.06
2023-02-08T17:19:49.210Z,103438.50
2023-02-08T17:22:15.793Z,103440.16
2023-02-08T17:24:42.433Z,103445.13
2023-02-08T17:27:13.970Z,103438.00
2023-02-08T17:29:40.841Z,103442.06
2023-02-08T17:32:07.509Z,103433.78
2023-02-08T17:34:35.766Z,103430.06
2023-02-08T17:37:02.879Z,103427.13
2023-02-08T17:39:29.460Z,103423.16
2023-02-08T17:41:56.012Z,103417.94
2023-02-08T17:44:22.587Z,103423.78
2023-02-08T17:46:49.142Z,103413.34
2023-02-08T17:49:16.257Z,103408.75
2023-02-08T17:51:42.853Z,103411.50
2023-02-08T17:54:11.263Z,103411.75
2023-02-08T17:56:38.078Z,103407.84
2023-02-08T17:59:05.625Z,103421.91
2023-02-08T18:01:32.666Z,103415.81
2023-02-08T18:03:59.930Z,103422.03
2023-02-08T18:06:26.655Z,103413.97
2023-02-08T18:08:54.885Z,103407.94
2023-02-08T18:11:23.533Z,103419.94
2023-02-08T18:13:52.869Z,103430.97
2023-02-08T18:16:25.626Z,103434.59
2023-02-08T18:18:55.815Z,103434.69
2023-02-08T18:21:26.007Z,103428.75
2023-02-08T18:23:55.085Z,103408.09
2023-02-08T18:26:23.569Z,103406.06
2023-02-08T18:28:52.218Z,103424.03
2023-02-08T18:31:22.898Z,103424.19
2023-02-08T18:33:50.065Z,103414.97
2023-02-08T18:36:18.343Z,103402.19
2023-02-08T18:38:48.028Z,103415.72
2023-02-08T18:41:18.305Z,103420.25
2023-02-08T18:43:45.856Z,103419.22
2023-02-08T18:46:18.307Z,103424.91
2023-02-08T18:48:45.579Z,103423.72
2023-02-08T18:51:14.710Z,103419.25
2023-02-08T18:53:42.424Z,103413.75
2023-02-08T18:56:11.826Z,103402.16
2023-02-08T18:58:38.356Z,103406.94
2023-02-08T19:01:25.306Z,103413.38
2023-02-08T19:03:52.398Z,103409.53
2023-02-08T19:06:22.667Z,103423.72
2023-02-08T19:08:51.694Z,103423.72
2023-02-08T19:11:27.636Z,103413.88
2023-02-08T19:13:56.581Z,103410.91
2023-02-08T19:16:24.761Z,103410.50
2023-02-08T19:18:53.238Z,103416.75
2023-02-08T19:21:20.386Z,103406.91
2023-02-08T19:23:48.640Z,103417.81
2023-02-08T19:26:26.866Z,103415.44
2023-02-08T19:28:57.178Z,103409.94
2023-02-08T19:31:25.034Z,103407.28
2023-02-08T19:33:53.634Z,103407.75
2023-02-08T19:36:23.239Z,103410.28
2023-02-08T19:38:50.937Z,103418.47
2023-02-08T19:41:20.746Z,103412.81
2023-02-08T19:43:48.242Z,103405.41
2023-02-08T19:46:19.422Z,103403.16
2023-02-08T19:48:46.563Z,103390.19
2023-02-08T19:51:13.181Z,103393.34
2023-02-08T19:53:39.860Z,103385.44
2023-02-08T19:56:08.993Z,103397.94
2023-02-08T19:58:36.448Z,103386.06
2023-02-08T20:01:12.198Z,103402.13
2023-02-08T20:03:39.175Z,103400.63
2023-02-08T20:06:16.668Z,103369.84
2023-02-08T20:12:31.015Z,103387.53
2023-02-08T20:15:00.766Z,103356.91
2023-02-08T20:17:29.308Z,103387.56
2023-02-08T20:19:58.279Z,103362.59
2023-02-08T20:22:24.896Z,103388.63
2023-02-08T20:24:51.561Z,103395.31
2023-02-08T20:27:18.328Z,103397.13
2023-02-08T20:29:45.047Z,103396.38
2023-02-08T20:32:11.958Z,103396.97
2023-02-08T20:34:40.944Z,103390.88
2023-02-08T20:37:13.849Z,103399.50
2023-02-08T20:39:40.461Z,103384.91
2023-02-08T20:42:07.077Z,103389.53
2023-02-08T20:44:33.974Z,103393.69
2023-02-08T20:47:00.660Z,103389.97
2023-02-08T20:49:27.853Z,103396.09
2023-02-08T20:51:54.775Z,103397.56
2023-02-08T20:54:24.509Z,103393.56
2023-02-08T20:56:53.151Z,103392.66
2023-02-08T20:59:19.803Z,103389.81
2023-02-08T21:01:46.681Z,103391.78
2023-02-08T21:04:13.672Z,103391.03
2023-02-08T21:06:44.338Z,103378.53
2023-02-08T21:09:17.383Z,103387.44
2023-02-08T21:11:45.332Z,103379.56
2023-02-08T21:14:18.571Z,103373.16
2023-02-08T21:16:48.336Z,103381.06
2023-02-08T21:19:15.774Z,103375.22
2023-02-08T21:21:43.232Z,103364.66
2023-02-08T21:24:11.274Z,103370.34
2023-02-08T21:26:37.948Z,103370.94
2023-02-08T21:29:06.252Z,103375.81
2023-02-08T21:31:34.312Z,103365.88
2023-02-08T21:34:03.770Z,103358.72
2023-02-08T21:36:30.787Z,103358.72
2023-02-08T21:38:57.789Z,103361.25
2023-02-08T21:41:30.587Z,103358.72
2023-02-08T21:43:59.573Z,103353.66
2023-02-08T21:46:30.023Z,103362.00
2023-02-08T21:49:16.159Z,103356.50
2023-02-08T21:52:02.020Z,103345.19
2023-02-08T21:54:42.005Z,103337.31
2023-02-08T21:57:13.878Z,103339.97
2023-02-08T21:59:40.843Z,103337.31
2023-02-08T22:02:14.112Z,103326.75
2023-02-08T22:04:59.468Z,103328.69
2023-02-08T22:07:26.452Z,103319.88
2023-02-08T22:09:53.014Z,103322.13
2023-02-08T22:12:21.789Z,103318.38
2023-02-08T22:14:49.741Z,103316.16
2023-02-08T22:17:17.051Z,103305.47
2023-02-08T22:19:43.832Z,103289.09
2023-02-08T22:22:11.281Z,103301.59
2023-02-08T22:24:38.039Z,103299.22
2023-02-08T22:27:05.046Z,103304.28
2023-02-08T22:29:31.639Z,103282.72
2023-02-08T22:31:58.395Z,103288.06
2023-02-08T22:34:27.024Z,103284.19
2023-02-08T22:36:53.970Z,103293.72
2023-02-08T22:39:20.911Z,103285.84
2023-02-08T22:41:47.592Z,103284.91
2023-02-08T22:44:14.317Z,103279.59
2023-02-08T22:46:40.872Z,103274.38
2023-02-08T22:49:08.848Z,103273.47
2023-02-08T22:51:35.859Z,103281.06
2023-02-08T22:54:02.758Z,103281.06
2023-02-08T22:56:29.411Z,103279.41
2023-02-08T22:58:56.373Z,103258.75
2023-02-08T23:01:22.995Z,103271.13
2023-02-08T23:03:49.727Z,103265.91
2023-02-08T23:06:17.114Z,103277.50
2023-02-08T23:08:44.631Z,103278.97
2023-02-08T23:11:13.640Z,103274.50
2023-02-08T23:13:40.392Z,103283.13
2023-02-08T23:16:07.303Z,103272.28
2023-02-08T23:18:36.036Z,103279.41
2023-02-08T23:21:10.454Z,103276.88
2023-02-08T23:23:37.196Z,103276.00
2023-02-08T23:26:06.078Z,103269.31
2023-02-08T23:28:33.203Z,103263.66
2023-02-08T23:31:00.261Z,103271.25
2023-02-08T23:33:26.855Z,103259.78
2023-02-08T23:35:53.411Z,103263.22
2023-02-08T23:38:19.909Z,103252.94
2023-02-08T23:40:46.604Z,103259.94
2023-02-08T23:43:13.380Z,103258.59
2023-02-08T23:45:39.943Z,103264.38
2023-02-08T23:48:06.460Z,103254.69
2023-02-08T23:50:33.424Z,103262.78
2023-02-08T23:53:00.120Z,103248.31
2023-02-08T23:55:26.812Z,103256.94
2023-02-08T23:57:53.389Z,103260.66
